PRSAU SBRJ-SBRP
Flight info
| Callsign | PRSAU |
|---|---|
| Flight time | N/A |
| Altitude | 14000 |
| Route | ESORU DCT ARSAX |
| Aircraft | DA62/L-SDFGRY/C |
Departure
| Time | 2026-05-03 22:41 |
|---|---|
| Airport | Santos Dumont Airport (SBRJ) |
Arrival
| Time | N/A |
|---|---|
| Airport | Leite Lopes Airport (SBRP) |
| Time | Latitude | Longitude | Altitude | Speed | Heading |
|---|---|---|---|---|---|
| 2026-05-03 22:23 | -22.90619 | -43.16486 | 22 ft | 0 kts | 176° |
| 2026-05-03 22:35 | -22.90630 | -43.16486 | 22 ft | 2 kts | 182° |
| 2026-05-03 22:35 | -22.90642 | -43.16499 | 23 ft | 3 kts | 261° |
| 2026-05-03 22:35 | -22.90650 | -43.16536 | 23 ft | 7 kts | 225° |
| 2026-05-03 22:36 | -22.90710 | -43.16546 | 23 ft | 10 kts | 176° |
| 2026-05-03 22:36 | -22.90792 | -43.16542 | 22 ft | 12 kts | 180° |
| 2026-05-03 22:36 | -22.90877 | -43.16549 | 22 ft | 11 kts | 176° |
| 2026-05-03 22:36 | -22.90958 | -43.16543 | 22 ft | 11 kts | 178° |
| 2026-05-03 22:37 | -22.91040 | -43.16535 | 21 ft | 11 kts | 171° |
| 2026-05-03 22:37 | -22.91123 | -43.16519 | 21 ft | 12 kts | 169° |
| 2026-05-03 22:37 | -22.91209 | -43.16515 | 20 ft | 12 kts | 176° |
| 2026-05-03 22:37 | -22.91292 | -43.16508 | 20 ft | 12 kts | 176° |
| 2026-05-03 22:38 | -22.91377 | -43.16504 | 20 ft | 11 kts | 175° |
| 2026-05-03 22:38 | -22.91441 | -43.16462 | 19 ft | 9 kts | 135° |
| 2026-05-03 22:38 | -22.91457 | -43.16444 | 19 ft | 0 kts | 129° |
| 2026-05-03 22:39 | -22.91469 | -43.16431 | 18 ft | 5 kts | 136° |
| 2026-05-03 22:39 | -22.91514 | -43.16386 | 17 ft | 11 kts | 138° |
| 2026-05-03 22:39 | -22.91589 | -43.16316 | 16 ft | 14 kts | 138° |
| 2026-05-03 22:39 | -22.91632 | -43.16245 | 15 ft | 10 kts | 37° |
| 2026-05-03 22:40 | -22.91565 | -43.16247 | 15 ft | 16 kts | 356° |
| 2026-05-03 22:40 | -22.91236 | -43.16272 | 18 ft | 74 kts | 356° |
| 2026-05-03 22:40 | -22.90667 | -43.16309 | 191 ft | 82 kts | 353° |
| 2026-05-03 22:40 | -22.90072 | -43.16367 | 400 ft | 92 kts | 355° |
| 2026-05-03 22:41 | -22.89406 | -43.16384 | 647 ft | 100 kts | 12° |
| 2026-05-03 22:41 | -22.88835 | -43.15951 | 904 ft | 106 kts | 58° |
| 2026-05-03 22:41 | -22.88555 | -43.15199 | 1162 ft | 110 kts | 74° |
| 2026-05-03 22:41 | -22.88335 | -43.14383 | 1416 ft | 115 kts | 77° |
| 2026-05-03 22:42 | -22.88128 | -43.13539 | 1664 ft | 119 kts | 78° |
| 2026-05-03 22:42 | -22.87917 | -43.12657 | 1901 ft | 122 kts | 79° |
| 2026-05-03 22:42 | -22.87709 | -43.11760 | 2144 ft | 125 kts | 78° |
| 2026-05-03 22:42 | -22.87623 | -43.10833 | 2389 ft | 124 kts | 98° |
| 2026-05-03 22:43 | -22.87734 | -43.09900 | 2638 ft | 126 kts | 101° |
| 2026-05-03 22:43 | -22.87870 | -43.08954 | 2884 ft | 127 kts | 102° |
| 2026-05-03 22:43 | -22.88007 | -43.08012 | 3126 ft | 128 kts | 101° |
| 2026-05-03 22:43 | -22.88147 | -43.07060 | 3368 ft | 129 kts | 101° |
| 2026-05-03 22:44 | -22.88290 | -43.06094 | 3610 ft | 128 kts | 101° |
| 2026-05-03 22:44 | -22.88465 | -43.05175 | 3839 ft | 124 kts | 117° |
| 2026-05-03 22:44 | -22.89098 | -43.04584 | 4069 ft | 122 kts | 157° |
| 2026-05-03 22:44 | -22.89915 | -43.04313 | 4284 ft | 122 kts | 166° |
| 2026-05-03 22:45 | -22.90745 | -43.04109 | 4491 ft | 123 kts | 168° |
| 2026-05-03 22:45 | -22.91582 | -43.03928 | 4703 ft | 123 kts | 169° |
| 2026-05-03 22:45 | -22.92430 | -43.03757 | 4907 ft | 125 kts | 169° |
| 2026-05-03 22:45 | -22.93293 | -43.03603 | 5111 ft | 125 kts | 179° |
| 2026-05-03 22:46 | -22.94093 | -43.03923 | 5317 ft | 126 kts | 212° |
| 2026-05-03 22:46 | -22.94803 | -43.04481 | 5539 ft | 125 kts | 217° |
| 2026-05-03 22:46 | -22.95492 | -43.05068 | 5741 ft | 126 kts | 218° |
| 2026-05-03 22:46 | -22.96178 | -43.05669 | 5939 ft | 128 kts | 218° |
| 2026-05-03 22:47 | -22.96867 | -43.06279 | 6161 ft | 127 kts | 219° |
| 2026-05-03 22:47 | -22.97550 | -43.06887 | 6366 ft | 128 kts | 219° |
| 2026-05-03 22:47 | -22.98241 | -43.07504 | 6572 ft | 128 kts | 219° |
| 2026-05-03 22:47 | -22.98937 | -43.08126 | 6764 ft | 130 kts | 219° |
| 2026-05-03 22:48 | -22.99627 | -43.08743 | 6969 ft | 130 kts | 220° |
| 2026-05-03 22:48 | -23.00332 | -43.09374 | 7182 ft | 130 kts | 220° |
| 2026-05-03 22:48 | -23.01030 | -43.09999 | 7368 ft | 131 kts | 220° |
| 2026-05-03 22:48 | -23.01738 | -43.10633 | 7568 ft | 132 kts | 220° |
| 2026-05-03 22:49 | -23.02451 | -43.11270 | 7766 ft | 133 kts | 220° |
| 2026-05-03 22:49 | -23.02932 | -43.11700 | 7895 ft | 133 kts | 220° |
| 2026-05-03 22:49 | -23.03889 | -43.12555 | 8154 ft | 135 kts | 221° |